createdAt,value
2017-12-20T00:00:16.385Z,14.60
2017-12-20T00:02:44.779Z,13.85
2017-12-20T00:05:12.396Z,16.25
2017-12-20T00:07:40.043Z,16.20
2017-12-20T00:10:07.686Z,13.88
2017-12-20T00:12:35.342Z,13.60
2017-12-20T00:15:03.041Z,14.80
2017-12-20T00:17:30.900Z,15.02
2017-12-20T00:19:58.565Z,15.02
2017-12-20T00:22:26.185Z,15.20
2017-12-20T00:24:53.855Z,15.95
2017-12-20T00:27:21.492Z,16.35
2017-12-20T00:29:49.318Z,16.45
2017-12-20T00:32:17.164Z,15.45
2017-12-20T00:34:44.723Z,16.17
2017-12-20T00:37:12.380Z,15.90
2017-12-20T00:39:40.556Z,17.35
2017-12-20T00:42:08.183Z,16.27
2017-12-20T00:44:35.744Z,16.20
2017-12-20T00:47:03.365Z,16.65
2017-12-20T00:49:30.984Z,17.52
2017-12-20T00:51:58.623Z,16.60
2017-12-20T00:54:26.304Z,16.70
2017-12-20T00:56:53.891Z,17.20
2017-12-20T00:59:22.263Z,16.55
2017-12-20T01:01:49.907Z,18.27
2017-12-20T01:04:17.501Z,17.55
2017-12-20T01:06:45.140Z,15.93
2017-12-20T01:09:13.628Z,17.08
2017-12-20T01:11:41.297Z,15.20
2017-12-20T01:14:09.013Z,17.62
2017-12-20T01:16:36.613Z,15.52
2017-12-20T01:19:04.480Z,14.77
2017-12-20T01:21:32.703Z,15.27
2017-12-20T01:24:00.603Z,15.57
2017-12-20T01:26:28.420Z,13.98
2017-12-20T01:28:56.654Z,16.08
2017-12-20T01:31:24.459Z,15.43
2017-12-20T01:33:52.077Z,13.75
2017-12-20T01:36:19.683Z,14.02
2017-12-20T01:38:47.840Z,14.02
2017-12-20T01:41:15.681Z,15.98
2017-12-20T01:43:43.294Z,14.90
2017-12-20T01:46:11.518Z,15.25
2017-12-20T01:48:39.363Z,14.87
2017-12-20T01:51:06.980Z,14.45
2017-12-20T01:53:34.559Z,14.60
2017-12-20T01:56:02.212Z,12.77
2017-12-20T01:58:29.826Z,17.40
2017-12-20T02:00:57.462Z,16.02
2017-12-20T02:03:25.007Z,14.73
2017-12-20T02:05:52.944Z,13.27
2017-12-20T02:08:20.578Z,16.73
2017-12-20T02:10:48.348Z,14.05
2017-12-20T02:13:15.933Z,14.32
2017-12-20T02:15:43.662Z,16.20
2017-12-20T02:18:11.252Z,16.12
2017-12-20T02:20:39.234Z,17.52
2017-12-20T02:23:06.852Z,16.10
2017-12-20T02:25:34.471Z,18.23
2017-12-20T02:28:02.319Z,16.23
2017-12-20T02:30:29.956Z,16.65
2017-12-20T02:32:57.542Z,17.25
2017-12-20T02:35:25.364Z,17.20
2017-12-20T02:37:52.981Z,14.70
2017-12-20T02:40:20.644Z,15.13
2017-12-20T02:42:50.094Z,16.05
2017-12-20T02:45:18.636Z,13.75
2017-12-20T02:47:46.272Z,14.10
2017-12-20T02:50:13.935Z,15.35
2017-12-20T02:52:42.058Z,14.40
2017-12-20T02:55:09.739Z,16.65
2017-12-20T02:57:37.992Z,17.60
2017-12-20T03:00:07.208Z,18.52
2017-12-20T03:02:35.027Z,17.33
2017-12-20T03:05:02.871Z,18.02
2017-12-20T03:07:30.469Z,19.42
2017-12-20T03:09:58.132Z,16.83
2017-12-20T03:12:25.729Z,16.30
2017-12-20T03:14:54.092Z,16.92
2017-12-20T03:17:22.765Z,18.02
2017-12-20T03:19:50.555Z,16.40
2017-12-20T03:22:19.051Z,16.73
2017-12-20T03:24:46.849Z,15.98
2017-12-20T03:27:14.575Z,18.42
2017-12-20T03:29:42.188Z,17.87
2017-12-20T03:32:09.880Z,17.58
2017-12-20T03:34:38.303Z,17.42
2017-12-20T03:37:05.905Z,18.02
2017-12-20T03:39:33.609Z,18.58
2017-12-20T03:42:01.723Z,16.40
2017-12-20T03:44:29.495Z,16.77
2017-12-20T03:46:57.838Z,19.02
2017-12-20T03:49:25.439Z,17.40
2017-12-20T03:51:53.084Z,17.52
2017-12-20T03:54:20.712Z,18.60
2017-12-20T03:56:49.223Z,19.58
2017-12-20T03:59:17.050Z,16.12
2017-12-20T04:01:45.236Z,15.85
2017-12-20T04:04:13.105Z,16.87
2017-12-20T04:06:40.809Z,16.45
2017-12-20T04:09:08.469Z,17.60
2017-12-20T04:11:36.267Z,17.25
2017-12-20T04:14:04.728Z,16.95
2017-12-20T04:16:32.545Z,17.10
2017-12-20T04:19:00.411Z,17.85
2017-12-20T04:21:29.325Z,15.80
2017-12-20T04:23:57.162Z,17.27
2017-12-20T04:26:24.765Z,19.45
2017-12-20T04:28:52.379Z,16.40
2017-12-20T04:31:21.466Z,18.15
2017-12-20T04:33:49.102Z,17.45
2017-12-20T04:36:16.683Z,16.90
2017-12-20T04:52:14.015Z,21.50
2017-12-20T04:54:41.648Z,18.62
2017-12-20T04:57:09.227Z,17.73
2017-12-20T04:59:36.962Z,16.48
2017-12-20T05:02:04.645Z,15.82
2017-12-20T05:04:32.198Z,16.12
2017-12-20T05:06:59.864Z,17.02
2017-12-20T05:09:28.587Z,18.00
2017-12-20T05:11:56.272Z,17.92
2017-12-20T05:14:24.151Z,19.37
2017-12-20T05:16:51.759Z,15.80
2017-12-20T05:19:19.667Z,19.05
2017-12-20T05:21:47.499Z,20.62
2017-12-20T05:24:15.770Z,23.20
2017-12-20T05:26:43.425Z,23.12
2017-12-20T05:29:11.194Z,22.42
2017-12-20T05:31:38.859Z,23.60
2017-12-20T05:34:06.683Z,23.80
2017-12-20T05:36:34.223Z,23.98
2017-12-20T05:39:02.879Z,25.90
2017-12-20T05:41:30.649Z,23.27
2017-12-20T05:43:58.234Z,21.90
2017-12-20T05:46:26.086Z,25.70
2017-12-20T05:48:53.924Z,24.40
2017-12-20T05:51:21.452Z,24.92
2017-12-20T05:53:49.070Z,25.45
2017-12-20T05:56:16.846Z,25.92
2017-12-20T05:58:44.682Z,22.02
2017-12-20T06:01:12.354Z,21.60
2017-12-20T06:03:39.878Z,24.87
2017-12-20T06:06:07.459Z,26.30
2017-12-20T06:08:35.070Z,21.33
2017-12-20T06:11:02.672Z,21.55
2017-12-20T06:13:30.252Z,24.73
2017-12-20T06:15:57.806Z,24.92
2017-12-20T06:18:25.405Z,25.83
2017-12-20T06:20:53.342Z,26.40
2017-12-20T06:23:20.946Z,28.80
2017-12-20T06:25:48.533Z,26.48
2017-12-20T06:28:16.120Z,25.90
2017-12-20T06:30:43.924Z,26.05
2017-12-20T06:33:11.590Z,27.80
2017-12-20T06:35:39.693Z,27.65
2017-12-20T06:38:07.969Z,27.92
2017-12-20T06:40:35.778Z,28.83
2017-12-20T06:43:03.603Z,28.50
2017-12-20T06:45:31.875Z,30.35
2017-12-20T06:48:00.461Z,28.80
2017-12-20T06:50:28.046Z,28.15
2017-12-20T06:52:56.173Z,29.45
2017-12-20T06:55:23.920Z,26.02
2017-12-20T06:57:51.507Z,27.23
2017-12-20T07:00:19.454Z,27.10
2017-12-20T07:02:47.026Z,26.05
2017-12-20T07:05:14.784Z,23.73
2017-12-20T07:07:42.413Z,20.00
2017-12-20T07:10:10.238Z,16.30
2017-12-20T07:12:37.743Z,16.55
2017-12-20T07:15:05.659Z,19.00
2017-12-20T07:17:33.230Z,18.00
2017-12-20T07:20:00.838Z,19.58
2017-12-20T07:22:28.601Z,14.98
2017-12-20T07:24:56.194Z,18.95
2017-12-20T07:27:24.027Z,16.50
2017-12-20T07:29:51.629Z,18.00
2017-12-20T07:32:19.219Z,15.35
2017-12-20T07:34:46.815Z,18.20
2017-12-20T07:37:14.398Z,18.52
2017-12-20T07:39:42.933Z,17.87
2017-12-20T07:42:11.360Z,19.40
2017-12-20T07:44:38.935Z,16.90
2017-12-20T07:47:06.598Z,17.42
2017-12-20T07:49:34.208Z,15.73
2017-12-20T07:52:02.029Z,15.07
2017-12-20T07:54:30.250Z,16.23
2017-12-20T07:56:58.027Z,16.35
2017-12-20T07:59:25.611Z,15.68
2017-12-20T08:01:53.180Z,15.60
2017-12-20T08:04:20.946Z,14.87
2017-12-20T08:06:49.163Z,14.65
2017-12-20T08:09:16.940Z,16.85
2017-12-20T08:11:44.743Z,16.27
2017-12-20T08:14:12.526Z,14.45
2017-12-20T08:16:40.783Z,15.77
2017-12-20T08:19:08.592Z,15.63
2017-12-20T08:21:37.595Z,14.55
2017-12-20T08:24:05.418Z,16.73
2017-12-20T08:26:33.052Z,15.13
2017-12-20T08:29:00.822Z,18.60
2017-12-20T08:31:28.447Z,16.80
2017-12-20T08:33:56.076Z,13.50
2017-12-20T08:36:23.710Z,14.07
2017-12-20T08:38:52.237Z,13.02
2017-12-20T08:41:19.816Z,13.30
2017-12-20T08:43:47.371Z,14.07
2017-12-20T08:46:14.966Z,11.95
2017-12-20T08:48:42.756Z,12.80
2017-12-20T08:51:10.536Z,11.75
2017-12-20T08:53:38.317Z,13.10
2017-12-20T08:56:05.863Z,13.60
2017-12-20T08:58:33.858Z,11.90
2017-12-20T09:01:01.658Z,12.23
2017-12-20T09:03:29.239Z,13.60
2017-12-20T09:05:56.993Z,11.82
2017-12-20T09:08:24.619Z,12.15
2017-12-20T09:10:52.976Z,13.68
2017-12-20T09:13:20.743Z,11.98
2017-12-20T09:15:48.537Z,10.63
2017-12-20T09:18:16.111Z,12.20
2017-12-20T09:20:44.219Z,10.98
2017-12-20T09:23:11.864Z,12.40
2017-12-20T09:25:40.194Z,12.10
2017-12-20T09:28:08.028Z,11.48
2017-12-20T09:30:35.866Z,11.40
2017-12-20T09:33:03.741Z,10.52
2017-12-20T09:35:31.547Z,11.32
2017-12-20T09:37:59.330Z,10.55
2017-12-20T09:40:27.778Z,10.13
2017-12-20T09:42:55.453Z,11.32
2017-12-20T09:45:23.275Z,10.63
2017-12-20T09:47:51.018Z,11.63
2017-12-20T09:50:18.581Z,12.43
2017-12-20T09:52:47.099Z,10.90
2017-12-20T09:55:14.665Z,10.50
2017-12-20T09:57:42.321Z,12.02
2017-12-20T10:00:10.626Z,10.90
2017-12-20T10:02:38.204Z,10.20
2017-12-20T10:05:05.796Z,9.65
2017-12-20T10:07:33.383Z,8.85
2017-12-20T10:10:00.976Z,8.43
2017-12-20T10:12:28.523Z,9.68
2017-12-20T10:14:56.152Z,10.02
2017-12-20T10:17:24.373Z,8.68
2017-12-20T10:19:51.979Z,9.55
2017-12-20T10:22:20.442Z,8.95
2017-12-20T10:24:48.060Z,9.60
2017-12-20T10:27:16.602Z,9.27
2017-12-20T10:29:45.150Z,10.52
2017-12-20T10:32:12.751Z,8.05
2017-12-20T10:34:40.660Z,8.23
2017-12-20T10:37:08.190Z,7.50
2017-12-20T10:39:35.841Z,7.57
2017-12-20T10:42:04.289Z,8.82
2017-12-20T10:44:31.874Z,8.88
2017-12-20T10:46:59.520Z,8.20
2017-12-20T10:49:27.152Z,7.60
2017-12-20T10:51:55.008Z,8.60
2017-12-20T10:54:23.182Z,8.00
2017-12-20T10:56:52.116Z,8.32
2017-12-20T10:59:19.791Z,10.38
2017-12-20T11:01:47.494Z,7.97
2017-12-20T11:04:15.066Z,8.77
2017-12-20T11:06:43.342Z,9.70
2017-12-20T11:09:10.978Z,8.27
2017-12-20T11:11:39.094Z,9.07
2017-12-20T11:14:07.018Z,9.68
2017-12-20T11:16:35.513Z,9.10
2017-12-20T11:19:03.115Z,10.30
2017-12-20T11:21:30.908Z,8.48
2017-12-20T11:23:58.520Z,9.50
2017-12-20T11:26:26.134Z,8.52
2017-12-20T11:28:54.642Z,9.88
2017-12-20T11:31:24.211Z,8.77
2017-12-20T11:33:51.960Z,9.05
2017-12-20T11:36:19.554Z,9.18
2017-12-20T11:38:47.372Z,7.87
2017-12-20T11:41:15.013Z,8.65
2017-12-20T11:43:42.618Z,8.32
2017-12-20T11:46:10.250Z,7.93
2017-12-20T11:48:37.825Z,9.25
2017-12-20T11:51:05.387Z,7.80
2017-12-20T11:53:33.010Z,8.20
2017-12-20T11:56:00.594Z,7.45
2017-12-20T11:58:28.273Z,7.10
2017-12-20T12:00:55.876Z,6.50
2017-12-20T12:03:23.461Z,7.22
2017-12-20T12:05:52.055Z,7.50
2017-12-20T12:08:19.653Z,8.13
2017-12-20T12:10:47.249Z,7.62
2017-12-20T12:13:14.864Z,7.95
2017-12-20T12:15:42.499Z,7.97
2017-12-20T12:18:10.366Z,7.80
2017-12-20T12:20:38.367Z,8.00
2017-12-20T12:23:06.039Z,7.05
2017-12-20T12:25:33.801Z,7.32
2017-12-20T12:28:02.782Z,6.95
2017-12-20T12:30:30.410Z,11.38
2017-12-20T12:32:58.202Z,9.52
2017-12-20T12:35:26.177Z,6.93
2017-12-20T12:37:53.810Z,6.90
2017-12-20T12:40:21.573Z,7.72
2017-12-20T12:42:49.328Z,7.40
2017-12-20T12:45:17.242Z,7.93
2017-12-20T12:47:44.887Z,8.32
2017-12-20T12:50:12.671Z,8.07
2017-12-20T12:52:41.180Z,8.02
2017-12-20T12:55:09.903Z,8.68
2017-12-20T12:57:39.408Z,8.95
2017-12-20T13:00:07.773Z,8.43
2017-12-20T13:02:35.650Z,9.82
2017-12-20T13:05:03.471Z,7.70
2017-12-20T13:07:31.611Z,7.30
2017-12-20T13:09:59.278Z,7.37
2017-12-20T13:12:26.962Z,7.80
2017-12-20T13:14:54.545Z,9.55
2017-12-20T13:17:22.620Z,6.50
2017-12-20T13:19:50.222Z,7.68
2017-12-20T13:22:17.910Z,7.97
2017-12-20T13:24:45.763Z,7.57
2017-12-20T13:27:13.341Z,8.00
2017-12-20T13:29:42.203Z,6.72
2017-12-20T13:32:10.606Z,7.47
2017-12-20T13:34:38.465Z,8.07
2017-12-20T13:37:08.650Z,8.15
2017-12-20T13:39:36.420Z,7.28
2017-12-20T13:42:04.186Z,8.70
2017-12-20T13:44:31.968Z,6.93
2017-12-20T13:46:59.866Z,7.15
2017-12-20T13:49:27.493Z,8.77
2017-12-20T13:51:55.069Z,9.10
2017-12-20T13:54:22.785Z,8.02
2017-12-20T13:56:50.995Z,9.45
2017-12-20T13:59:18.639Z,8.77
2017-12-20T14:01:46.436Z,8.25
2017-12-20T14:04:14.177Z,7.70
2017-12-20T14:06:42.007Z,7.80
2017-12-20T14:09:09.764Z,7.62
2017-12-20T14:11:38.860Z,9.57
2017-12-20T14:14:07.440Z,8.07
2017-12-20T14:16:35.906Z,7.07
2017-12-20T14:19:03.923Z,8.05
2017-12-20T14:21:32.292Z,7.50
2017-12-20T14:24:00.304Z,7.18
2017-12-20T14:26:27.891Z,7.75
2017-12-20T14:28:55.724Z,7.50
2017-12-20T14:31:23.700Z,8.77
2017-12-20T14:33:51.430Z,6.70
2017-12-20T14:36:20.048Z,7.00
2017-12-20T14:38:47.684Z,6.75
2017-12-20T14:41:15.458Z,6.40
2017-12-20T14:43:43.167Z,6.53
2017-12-20T14:46:11.197Z,7.00
2017-12-20T14:48:39.262Z,6.53
2017-12-20T14:51:07.459Z,7.30
2017-12-20T14:53:35.792Z,8.00
2017-12-20T14:56:03.399Z,7.62
2017-12-20T14:58:31.055Z,6.97
2017-12-20T15:00:58.742Z,6.80
2017-12-20T15:03:26.664Z,6.22
2017-12-20T15:05:54.471Z,6.87
2017-12-20T15:08:22.105Z,7.87
2017-12-20T15:10:50.489Z,7.80
2017-12-20T15:13:18.283Z,7.35
2017-12-20T15:15:46.832Z,7.68
2017-12-20T15:18:14.483Z,8.38
2017-12-20T15:20:42.566Z,6.97
2017-12-20T15:23:11.520Z,8.45
2017-12-20T15:25:39.220Z,8.05
2017-12-20T15:28:06.938Z,8.82
2017-12-20T15:30:34.622Z,8.25
2017-12-20T15:33:02.817Z,8.60
2017-12-20T15:35:30.428Z,7.50
2017-12-20T15:37:58.050Z,7.30
2017-12-20T15:40:26.655Z,9.05
2017-12-20T15:42:54.225Z,8.15
2017-12-20T15:45:22.809Z,8.70
2017-12-20T15:47:50.664Z,8.82
2017-12-20T15:50:18.659Z,9.75
2017-12-20T15:52:47.114Z,8.52
2017-12-20T15:55:14.746Z,9.75
2017-12-20T15:57:42.659Z,9.60
2017-12-20T16:00:10.382Z,9.45
2017-12-20T16:02:38.369Z,9.70
2017-12-20T16:05:06.004Z,7.70
2017-12-20T16:07:33.704Z,7.43
2017-12-20T16:10:01.307Z,7.72
2017-12-20T16:12:29.706Z,8.30
2017-12-20T16:14:59.767Z,7.57
2017-12-20T16:17:27.858Z,8.52
2017-12-20T16:19:55.478Z,7.50
2017-12-20T16:22:23.863Z,8.38
2017-12-20T16:31:30.025Z,9.38
2017-12-20T16:33:57.674Z,9.20
2017-12-20T16:36:25.293Z,10.35
2017-12-20T16:38:53.169Z,11.20
2017-12-20T16:41:20.817Z,11.15
2017-12-20T16:43:49.575Z,9.93
2017-12-20T16:46:17.169Z,10.13
2017-12-20T16:48:45.714Z,9.43
2017-12-20T16:51:13.641Z,10.13
2017-12-20T16:53:42.209Z,8.88
2017-12-20T16:56:10.287Z,9.30
2017-12-20T16:58:37.880Z,8.82
2017-12-20T17:01:05.576Z,9.15
2017-12-20T17:03:33.324Z,9.45
2017-12-20T17:06:00.899Z,11.07
2017-12-20T17:08:29.807Z,9.45
2017-12-20T17:10:57.363Z,9.45
2017-12-20T17:13:24.967Z,8.10
2017-12-20T17:15:52.595Z,9.20
2017-12-20T17:18:21.132Z,9.65
2017-12-20T17:20:48.697Z,9.77
2017-12-20T17:23:16.270Z,9.77
2017-12-20T17:25:43.825Z,8.85
2017-12-20T17:28:13.200Z,9.73
2017-12-20T17:30:41.202Z,9.57
2017-12-20T17:33:09.651Z,8.98
2017-12-20T17:35:37.256Z,9.70
2017-12-20T17:38:04.919Z,8.02
2017-12-20T17:40:33.718Z,8.15
2017-12-20T17:43:01.467Z,8.10
2017-12-20T17:45:29.144Z,8.35
2017-12-20T17:47:57.192Z,8.00
2017-12-20T17:50:25.323Z,7.30
2017-12-20T17:52:52.910Z,8.70
2017-12-20T17:55:22.076Z,8.88
2017-12-20T17:57:50.067Z,7.15
2017-12-20T18:00:19.748Z,9.27
2017-12-20T18:02:47.318Z,8.40
2017-12-20T18:05:14.987Z,9.27
2017-12-20T18:07:42.602Z,11.00
2017-12-20T18:10:11.141Z,11.75
2017-12-20T18:12:40.409Z,10.55
2017-12-20T18:15:08.006Z,10.70
2017-12-20T18:17:35.646Z,9.77
2017-12-20T18:20:03.577Z,10.10
2017-12-20T18:22:33.088Z,8.80
2017-12-20T18:25:00.787Z,7.40
2017-12-20T18:27:29.664Z,7.90
2017-12-20T18:29:59.030Z,7.28
2017-12-20T18:32:28.683Z,7.80
2017-12-20T18:34:57.598Z,8.00
2017-12-20T18:37:25.608Z,8.80
2017-12-20T18:39:53.318Z,7.45
2017-12-20T18:42:21.081Z,6.85
2017-12-20T18:44:48.732Z,7.20
2017-12-20T18:47:16.356Z,7.50
2017-12-20T18:49:43.993Z,9.25
2017-12-20T18:52:11.646Z,7.87
2017-12-20T18:54:39.331Z,8.05
2017-12-20T18:57:07.713Z,7.78
2017-12-20T18:59:35.723Z,7.00
2017-12-20T19:02:04.923Z,6.60
2017-12-20T19:04:32.668Z,7.70
2017-12-20T19:07:00.420Z,7.40
2017-12-20T19:09:28.497Z,7.47
2017-12-20T19:11:58.492Z,8.80
2017-12-20T19:14:34.162Z,9.20
2017-12-20T19:17:01.854Z,7.00
2017-12-20T19:19:29.592Z,8.38
2017-12-20T19:21:57.543Z,6.95
2017-12-20T19:24:27.022Z,7.37
2017-12-20T19:26:55.955Z,8.13
2017-12-20T19:29:24.209Z,8.88
2017-12-20T19:31:52.172Z,7.07
2017-12-20T19:34:19.784Z,8.20
2017-12-20T19:36:48.278Z,6.18
2017-12-20T19:39:15.997Z,7.60
2017-12-20T19:41:43.621Z,6.87
2017-12-20T19:44:11.811Z,7.65
2017-12-20T19:46:39.852Z,6.57
2017-12-20T19:49:07.689Z,8.57
2017-12-20T19:51:35.798Z,7.37
2017-12-20T19:54:03.476Z,9.15
2017-12-20T19:56:31.151Z,8.70
2017-12-20T19:58:58.807Z,9.25
2017-12-20T20:01:26.517Z,8.50
2017-12-20T20:03:54.120Z,10.20
2017-12-20T20:06:23.010Z,9.90
2017-12-20T20:08:50.676Z,8.90
2017-12-20T20:11:18.480Z,9.90
2017-12-20T20:13:46.149Z,10.48
2017-12-20T20:16:17.625Z,10.27
2017-12-20T20:18:47.348Z,10.57
2017-12-20T20:21:20.753Z,11.90
2017-12-20T20:23:48.692Z,10.57
2017-12-20T20:26:16.663Z,9.50
2017-12-20T20:28:44.501Z,8.85
2017-12-20T20:31:13.875Z,10.55
2017-12-20T20:33:41.481Z,8.20
2017-12-20T20:36:09.824Z,8.70
2017-12-20T20:38:38.212Z,8.57
2017-12-20T20:41:05.887Z,9.00
2017-12-20T20:43:33.548Z,10.25
2017-12-20T20:46:01.248Z,10.70
2017-12-20T20:48:28.974Z,11.12
2017-12-20T20:50:56.735Z,13.32
2017-12-20T20:53:24.456Z,13.40
2017-12-20T20:55:52.155Z,11.25
2017-12-20T20:58:19.922Z,9.25
2017-12-20T21:00:48.359Z,9.30
2017-12-20T21:03:16.879Z,11.05
2017-12-20T21:05:45.260Z,10.30
2017-12-20T21:08:13.645Z,11.25
2017-12-20T21:10:41.281Z,12.25
2017-12-20T21:13:08.914Z,10.43
2017-12-20T21:15:37.401Z,11.93
2017-12-20T21:18:08.898Z,11.27
2017-12-20T21:20:36.913Z,12.37
2017-12-20T21:23:05.556Z,11.27
2017-12-20T21:25:33.239Z,11.60
2017-12-20T21:28:01.053Z,12.82
2017-12-20T21:30:28.855Z,11.50
2017-12-20T21:32:57.049Z,11.10
2017-12-20T21:35:25.654Z,10.52
2017-12-20T21:37:53.434Z,11.85
2017-12-20T21:40:21.052Z,11.45
2017-12-20T21:42:48.891Z,11.12
2017-12-20T21:45:17.078Z,13.50
2017-12-20T21:47:44.873Z,14.38
2017-12-20T21:50:12.960Z,12.65
2017-12-20T21:52:40.950Z,12.60
2017-12-20T21:55:08.676Z,13.80
2017-12-20T21:57:37.095Z,12.85
2017-12-20T22:00:16.587Z,14.07
2017-12-20T22:02:44.616Z,13.50
2017-12-20T22:05:16.201Z,11.77
2017-12-20T22:07:44.547Z,13.68
2017-12-20T22:10:12.447Z,12.73
2017-12-20T22:12:40.330Z,13.90
2017-12-20T22:15:08.198Z,13.95
2017-12-20T22:17:35.864Z,14.25
2017-12-20T22:20:22.183Z,11.12
2017-12-20T22:22:51.558Z,12.45
2017-12-20T22:25:19.376Z,11.32
2017-12-20T22:27:48.391Z,12.25
2017-12-20T22:30:16.796Z,11.80
2017-12-20T22:32:45.254Z,11.30
2017-12-20T22:35:12.906Z,11.40
2017-12-20T22:37:40.598Z,12.15
2017-12-20T22:40:09.969Z,14.70
2017-12-20T22:42:37.676Z,13.55
2017-12-20T22:45:23.335Z,12.37
2017-12-20T22:47:51.904Z,12.43
2017-12-20T22:50:19.574Z,14.65
2017-12-20T22:52:47.316Z,12.30
2017-12-20T22:55:14.983Z,10.50
2017-12-20T22:57:42.705Z,12.20
2017-12-20T23:00:10.665Z,12.65
2017-12-20T23:02:38.299Z,11.88
2017-12-20T23:05:06.347Z,10.38
2017-12-20T23:07:34.901Z,11.38
2017-12-20T23:10:02.551Z,12.57
2017-12-20T23:12:30.406Z,12.25
2017-12-20T23:14:58.725Z,14.07
2017-12-20T23:17:26.781Z,12.25
2017-12-20T23:19:54.400Z,12.23
2017-12-20T23:22:22.172Z,10.13
2017-12-20T23:24:49.954Z,13.57
2017-12-20T23:27:18.425Z,11.95
2017-12-20T23:29:46.109Z,12.82
2017-12-20T23:32:13.863Z,10.75
2017-12-20T23:34:41.638Z,10.70
2017-12-20T23:37:10.193Z,9.65
2017-12-20T23:39:39.347Z,12.15
2017-12-20T23:42:07.074Z,10.50
2017-12-20T23:44:34.702Z,10.18
2017-12-20T23:47:02.446Z,10.68
2017-12-20T23:49:30.095Z,10.02
2017-12-20T23:51:57.759Z,11.25
2017-12-20T23:54:25.453Z,9.80
2017-12-20T23:56:53.187Z,10.85
2017-12-20T23:59:20.875Z,11.07
